sensor_id;sensor_type;location;lat;lon;timestamp;P1;durP1;ratioP1;P2;durP2;ratioP2
41921;SDS011;27609;51.002;5.354;2022-07-05T00:01:07;3.45;;;2.35;;
41921;SDS011;27609;51.002;5.354;2022-07-05T00:03:33;5.78;;;2.47;;
41921;SDS011;27609;51.002;5.354;2022-07-05T00:05:59;2.63;;;2.10;;
41921;SDS011;27609;51.002;5.354;2022-07-05T00:08:25;5.22;;;2.20;;
41921;SDS011;27609;51.002;5.354;2022-07-05T00:10:51;5.15;;;2.42;;
41921;SDS011;27609;51.002;5.354;2022-07-05T00:13:17;2.88;;;2.28;;
41921;SDS011;27609;51.002;5.354;2022-07-05T00:15:43;2.65;;;2.42;;
41921;SDS011;27609;51.002;5.354;2022-07-05T00:18:09;3.20;;;2.20;;
41921;SDS011;27609;51.002;5.354;2022-07-05T00:20:35;2.80;;;2.28;;
41921;SDS011;27609;51.002;5.354;2022-07-05T00:23:01;3.95;;;2.28;;
41921;SDS011;27609;51.002;5.354;2022-07-05T00:25:27;5.03;;;2.55;;
41921;SDS011;27609;51.002;5.354;2022-07-05T00:27:53;4.10;;;2.42;;
41921;SDS011;27609;51.002;5.354;2022-07-05T00:30:19;5.68;;;2.70;;
41921;SDS011;27609;51.002;5.354;2022-07-05T00:32:45;2.47;;;2.28;;
41921;SDS011;27609;51.002;5.354;2022-07-05T00:35:13;3.17;;;2.28;;
41921;SDS011;27609;51.002;5.354;2022-07-05T00:37:39;2.95;;;2.40;;
41921;SDS011;27609;51.002;5.354;2022-07-05T00:40:07;2.60;;;2.40;;
41921;SDS011;27609;51.002;5.354;2022-07-05T00:42:34;4.57;;;2.40;;
41921;SDS011;27609;51.002;5.354;2022-07-05T00:45:02;7.20;;;2.70;;
41921;SDS011;27609;51.002;5.354;2022-07-05T00:47:29;3.25;;;2.50;;
41921;SDS011;27609;51.002;5.354;2022-07-05T00:49:57;2.92;;;2.35;;
41921;SDS011;27609;51.002;5.354;2022-07-05T00:52:23;4.82;;;2.72;;
41921;SDS011;27609;51.002;5.354;2022-07-05T00:54:49;3.47;;;2.75;;
41921;SDS011;27609;51.002;5.354;2022-07-05T00:57:19;2.83;;;2.63;;
41921;SDS011;27609;51.002;5.354;2022-07-05T00:59:47;4.55;;;2.53;;
41921;SDS011;27609;51.002;5.354;2022-07-05T01:02:15;2.40;;;2.20;;
41921;SDS011;27609;51.002;5.354;2022-07-05T01:04:49;2.58;;;2.38;;
41921;SDS011;27609;51.002;5.354;2022-07-05T01:07:19;4.05;;;2.30;;
41921;SDS011;27609;51.002;5.354;2022-07-05T01:09:46;5.00;;;2.72;;
41921;SDS011;27609;51.002;5.354;2022-07-05T01:12:12;3.25;;;2.95;;
41921;SDS011;27609;51.002;5.354;2022-07-05T01:14:40;3.20;;;2.90;;
41921;SDS011;27609;51.002;5.354;2022-07-05T01:17:07;4.20;;;2.80;;
41921;SDS011;27609;51.002;5.354;2022-07-05T01:19:33;4.25;;;3.10;;
41921;SDS011;27609;51.002;5.354;2022-07-05T01:22:01;3.10;;;2.80;;
41921;SDS011;27609;51.002;5.354;2022-07-05T01:24:32;3.88;;;2.90;;
41921;SDS011;27609;51.002;5.354;2022-07-05T01:26:58;5.30;;;2.83;;
41921;SDS011;27609;51.002;5.354;2022-07-05T01:29:25;5.53;;;3.10;;
41921;SDS011;27609;51.002;5.354;2022-07-05T01:31:51;4.13;;;2.88;;
41921;SDS011;27609;51.002;5.354;2022-07-05T01:34:18;4.68;;;3.20;;
41921;SDS011;27609;51.002;5.354;2022-07-05T01:36:43;3.78;;;3.42;;
41921;SDS011;27609;51.002;5.354;2022-07-05T01:39:10;4.15;;;3.45;;
41921;SDS011;27609;51.002;5.354;2022-07-05T01:41:36;4.55;;;3.70;;
41921;SDS011;27609;51.002;5.354;2022-07-05T01:44:02;5.75;;;3.92;;
41921;SDS011;27609;51.002;5.354;2022-07-05T01:46:32;4.38;;;3.97;;
41921;SDS011;27609;51.002;5.354;2022-07-05T01:49:03;3.50;;;3.28;;
41921;SDS011;27609;51.002;5.354;2022-07-05T01:51:34;4.53;;;3.40;;
41921;SDS011;27609;51.002;5.354;2022-07-05T01:54:23;3.55;;;3.35;;
41921;SDS011;27609;51.002;5.354;2022-07-05T01:56:57;3.92;;;3.50;;
41921;SDS011;27609;51.002;5.354;2022-07-05T01:59:23;7.53;;;4.38;;
41921;SDS011;27609;51.002;5.354;2022-07-05T02:01:50;4.95;;;3.85;;
41921;SDS011;27609;51.002;5.354;2022-07-05T02:04:16;7.60;;;3.72;;
41921;SDS011;27609;51.002;5.354;2022-07-05T02:06:42;4.80;;;3.80;;
41921;SDS011;27609;51.002;5.354;2022-07-05T02:09:10;3.85;;;3.40;;
41921;SDS011;27609;51.002;5.354;2022-07-05T02:11:36;4.90;;;3.45;;
41921;SDS011;27609;51.002;5.354;2022-07-05T02:14:02;5.30;;;3.67;;
41921;SDS011;27609;51.002;5.354;2022-07-05T02:16:28;4.13;;;3.83;;
41921;SDS011;27609;51.002;5.354;2022-07-05T02:18:55;6.82;;;3.55;;
41921;SDS011;27609;51.002;5.354;2022-07-05T02:21:21;6.05;;;3.83;;
41921;SDS011;27609;51.002;5.354;2022-07-05T02:23:47;4.43;;;4.03;;
41921;SDS011;27609;51.002;5.354;2022-07-05T02:26:17;4.78;;;3.50;;
41921;SDS011;27609;51.002;5.354;2022-07-05T02:28:46;4.57;;;3.55;;
41921;SDS011;27609;51.002;5.354;2022-07-05T02:31:13;3.80;;;3.40;;
41921;SDS011;27609;51.002;5.354;2022-07-05T02:33:48;6.93;;;3.83;;
41921;SDS011;27609;51.002;5.354;2022-07-05T02:36:15;4.78;;;4.03;;
41921;SDS011;27609;51.002;5.354;2022-07-05T02:38:43;4.85;;;3.50;;
41921;SDS011;27609;51.002;5.354;2022-07-05T02:41:10;5.00;;;3.30;;
41921;SDS011;27609;51.002;5.354;2022-07-05T02:43:37;4.68;;;3.63;;
41921;SDS011;27609;51.002;5.354;2022-07-05T02:46:03;3.38;;;3.08;;
41921;SDS011;27609;51.002;5.354;2022-07-05T02:48:31;4.53;;;3.72;;
41921;SDS011;27609;51.002;5.354;2022-07-05T02:50:57;4.97;;;3.80;;
41921;SDS011;27609;51.002;5.354;2022-07-05T02:53:23;4.82;;;3.50;;
41921;SDS011;27609;51.002;5.354;2022-07-05T02:55:50;3.97;;;3.50;;
41921;SDS011;27609;51.002;5.354;2022-07-05T02:58:16;5.72;;;3.63;;
41921;SDS011;27609;51.002;5.354;2022-07-05T03:00:42;7.28;;;4.15;;
41921;SDS011;27609;51.002;5.354;2022-07-05T03:03:16;5.05;;;3.63;;
41921;SDS011;27609;51.002;5.354;2022-07-05T03:05:42;5.03;;;3.63;;
41921;SDS011;27609;51.002;5.354;2022-07-05T03:08:08;3.83;;;3.38;;
41921;SDS011;27609;51.002;5.354;2022-07-05T03:10:34;6.28;;;4.38;;
41921;SDS011;27609;51.002;5.354;2022-07-05T03:13:01;6.32;;;3.60;;
41921;SDS011;27609;51.002;5.354;2022-07-05T03:15:29;4.47;;;3.58;;
41921;SDS011;27609;51.002;5.354;2022-07-05T03:17:58;3.67;;;3.13;;
41921;SDS011;27609;51.002;5.354;2022-07-05T03:20:24;5.40;;;3.05;;
41921;SDS011;27609;51.002;5.354;2022-07-05T03:22:50;5.68;;;3.58;;
41921;SDS011;27609;51.002;5.354;2022-07-05T03:25:16;5.40;;;3.08;;
41921;SDS011;27609;51.002;5.354;2022-07-05T03:27:42;3.60;;;3.30;;
41921;SDS011;27609;51.002;5.354;2022-07-05T03:30:08;5.00;;;3.55;;
41921;SDS011;27609;51.002;5.354;2022-07-05T03:32:34;5.20;;;3.70;;
41921;SDS011;27609;51.002;5.354;2022-07-05T03:35:00;5.95;;;3.75;;
41921;SDS011;27609;51.002;5.354;2022-07-05T03:37:26;4.00;;;3.40;;
41921;SDS011;27609;51.002;5.354;2022-07-05T03:39:52;9.02;;;3.80;;
41921;SDS011;27609;51.002;5.354;2022-07-05T03:42:18;5.57;;;3.53;;
41921;SDS011;27609;51.002;5.354;2022-07-05T03:44:44;4.72;;;3.33;;
41921;SDS011;27609;51.002;5.354;2022-07-05T03:47:10;4.70;;;3.30;;
41921;SDS011;27609;51.002;5.354;2022-07-05T03:49:36;3.85;;;3.40;;
41921;SDS011;27609;51.002;5.354;2022-07-05T03:52:01;4.18;;;3.78;;
41921;SDS011;27609;51.002;5.354;2022-07-05T03:54:36;6.18;;;3.53;;
41921;SDS011;27609;51.002;5.354;2022-07-05T03:57:09;5.50;;;3.65;;
41921;SDS011;27609;51.002;5.354;2022-07-05T03:59:41;5.97;;;4.15;;
41921;SDS011;27609;51.002;5.354;2022-07-05T04:02:07;7.45;;;3.90;;
41921;SDS011;27609;51.002;5.354;2022-07-05T04:04:33;4.95;;;3.97;;
41921;SDS011;27609;51.002;5.354;2022-07-05T04:06:59;4.90;;;3.30;;
41921;SDS011;27609;51.002;5.354;2022-07-05T04:09:25;4.25;;;3.30;;
41921;SDS011;27609;51.002;5.354;2022-07-05T04:11:51;4.38;;;3.58;;
41921;SDS011;27609;51.002;5.354;2022-07-05T04:14:16;7.45;;;3.80;;
41921;SDS011;27609;51.002;5.354;2022-07-05T04:16:42;4.30;;;3.53;;
41921;SDS011;27609;51.002;5.354;2022-07-05T04:19:09;4.28;;;3.85;;
41921;SDS011;27609;51.002;5.354;2022-07-05T04:21:35;4.07;;;3.58;;
41921;SDS011;27609;51.002;5.354;2022-07-05T04:24:01;4.97;;;4.05;;
41921;SDS011;27609;51.002;5.354;2022-07-05T04:26:27;7.88;;;4.28;;
41921;SDS011;27609;51.002;5.354;2022-07-05T04:28:53;5.05;;;3.75;;
41921;SDS011;27609;51.002;5.354;2022-07-05T04:31:19;7.65;;;3.97;;
41921;SDS011;27609;51.002;5.354;2022-07-05T04:33:45;6.50;;;4.82;;
41921;SDS011;27609;51.002;5.354;2022-07-05T04:36:11;4.30;;;3.92;;
41921;SDS011;27609;51.002;5.354;2022-07-05T04:38:37;5.45;;;4.95;;
41921;SDS011;27609;51.002;5.354;2022-07-05T04:41:02;7.60;;;4.38;;
41921;SDS011;27609;51.002;5.354;2022-07-05T04:43:28;5.22;;;4.57;;
41921;SDS011;27609;51.002;5.354;2022-07-05T04:45:54;5.53;;;4.60;;
41921;SDS011;27609;51.002;5.354;2022-07-05T04:48:20;5.38;;;4.20;;
41921;SDS011;27609;51.002;5.354;2022-07-05T04:50:46;6.07;;;4.35;;
41921;SDS011;27609;51.002;5.354;2022-07-05T04:53:11;5.85;;;4.10;;
41921;SDS011;27609;51.002;5.354;2022-07-05T04:55:37;6.15;;;4.50;;
41921;SDS011;27609;51.002;5.354;2022-07-05T04:58:03;7.10;;;4.35;;
41921;SDS011;27609;51.002;5.354;2022-07-05T05:00:29;5.68;;;4.40;;
41921;SDS011;27609;51.002;5.354;2022-07-05T05:02:55;5.88;;;4.32;;
41921;SDS011;27609;51.002;5.354;2022-07-05T05:05:20;5.38;;;4.85;;
41921;SDS011;27609;51.002;5.354;2022-07-05T05:07:46;6.60;;;4.82;;
41921;SDS011;27609;51.002;5.354;2022-07-05T05:10:12;9.82;;;5.18;;
41921;SDS011;27609;51.002;5.354;2022-07-05T05:12:38;7.80;;;5.47;;
41921;SDS011;27609;51.002;5.354;2022-07-05T05:15:04;5.47;;;4.90;;
41921;SDS011;27609;51.002;5.354;2022-07-05T05:17:38;7.60;;;5.53;;
41921;SDS011;27609;51.002;5.354;2022-07-05T05:20:06;10.05;;;6.10;;
41921;SDS011;27609;51.002;5.354;2022-07-05T05:22:40;7.70;;;6.38;;
41921;SDS011;27609;51.002;5.354;2022-07-05T05:25:07;7.97;;;7.18;;
41921;SDS011;27609;51.002;5.354;2022-07-05T05:27:33;9.68;;;8.02;;
41921;SDS011;27609;51.002;5.354;2022-07-05T05:30:00;9.55;;;7.35;;
41921;SDS011;27609;51.002;5.354;2022-07-05T05:32:26;14.38;;;9.52;;
41921;SDS011;27609;51.002;5.354;2022-07-05T05:34:51;14.15;;;10.35;;
41921;SDS011;27609;51.002;5.354;2022-07-05T05:37:17;18.15;;;12.45;;
41921;SDS011;27609;51.002;5.354;2022-07-05T05:39:43;10.18;;;7.88;;
41921;SDS011;27609;51.002;5.354;2022-07-05T05:42:09;12.18;;;8.43;;
41921;SDS011;27609;51.002;5.354;2022-07-05T05:44:34;9.40;;;7.70;;
41921;SDS011;27609;51.002;5.354;2022-07-05T05:47:00;13.43;;;7.72;;
41921;SDS011;27609;51.002;5.354;2022-07-05T05:49:27;11.32;;;8.57;;
41921;SDS011;27609;51.002;5.354;2022-07-05T05:51:53;13.52;;;7.63;;
41921;SDS011;27609;51.002;5.354;2022-07-05T05:54:19;8.80;;;7.72;;
41921;SDS011;27609;51.002;5.354;2022-07-05T05:56:45;10.55;;;7.65;;
41921;SDS011;27609;51.002;5.354;2022-07-05T05:59:10;10.50;;;7.88;;
41921;SDS011;27609;51.002;5.354;2022-07-05T06:01:36;11.93;;;7.05;;
41921;SDS011;27609;51.002;5.354;2022-07-05T06:04:02;9.25;;;7.72;;
41921;SDS011;27609;51.002;5.354;2022-07-05T06:06:28;7.50;;;6.72;;
41921;SDS011;27609;51.002;5.354;2022-07-05T06:08:53;8.20;;;6.72;;
41921;SDS011;27609;51.002;5.354;2022-07-05T06:11:19;7.47;;;6.38;;
41921;SDS011;27609;51.002;5.354;2022-07-05T06:13:46;8.02;;;6.45;;
41921;SDS011;27609;51.002;5.354;2022-07-05T06:16:12;9.38;;;6.60;;
41921;SDS011;27609;51.002;5.354;2022-07-05T06:18:37;10.73;;;5.80;;
41921;SDS011;27609;51.002;5.354;2022-07-05T06:21:03;8.38;;;5.40;;
41921;SDS011;27609;51.002;5.354;2022-07-05T06:23:29;8.93;;;5.70;;
41921;SDS011;27609;51.002;5.354;2022-07-05T06:25:55;6.55;;;5.25;;
41921;SDS011;27609;51.002;5.354;2022-07-05T06:28:21;8.50;;;5.60;;
41921;SDS011;27609;51.002;5.354;2022-07-05T06:30:46;12.35;;;7.05;;
41921;SDS011;27609;51.002;5.354;2022-07-05T06:33:12;8.68;;;6.65;;
41921;SDS011;27609;51.002;5.354;2022-07-05T06:35:38;7.10;;;6.18;;
41921;SDS011;27609;51.002;5.354;2022-07-05T06:38:04;12.05;;;5.97;;
41921;SDS011;27609;51.002;5.354;2022-07-05T06:40:33;7.25;;;5.15;;
41921;SDS011;27609;51.002;5.354;2022-07-05T06:43:01;8.55;;;5.93;;
41921;SDS011;27609;51.002;5.354;2022-07-05T06:45:28;6.13;;;4.30;;
41921;SDS011;27609;51.002;5.354;2022-07-05T06:47:58;5.38;;;3.65;;
41921;SDS011;27609;51.002;5.354;2022-07-05T06:50:32;6.78;;;4.45;;
41921;SDS011;27609;51.002;5.354;2022-07-05T06:53:00;5.07;;;4.18;;
41921;SDS011;27609;51.002;5.354;2022-07-05T06:55:27;3.50;;;2.55;;
41921;SDS011;27609;51.002;5.354;2022-07-05T06:58:00;3.30;;;3.00;;
41921;SDS011;27609;51.002;5.354;2022-07-05T07:00:27;4.63;;;3.38;;
41921;SDS011;27609;51.002;5.354;2022-07-05T07:02:53;6.78;;;3.90;;
41921;SDS011;27609;51.002;5.354;2022-07-05T07:05:20;8.45;;;3.28;;
41921;SDS011;27609;51.002;5.354;2022-07-05T07:07:46;3.40;;;2.85;;
41921;SDS011;27609;51.002;5.354;2022-07-05T07:10:30;7.38;;;3.20;;
41921;SDS011;27609;51.002;5.354;2022-07-05T07:12:59;5.00;;;3.03;;
41921;SDS011;27609;51.002;5.354;2022-07-05T07:15:26;7.07;;;3.47;;
41921;SDS011;27609;51.002;5.354;2022-07-05T07:17:52;6.45;;;3.40;;
41921;SDS011;27609;51.002;5.354;2022-07-05T07:20:18;7.93;;;2.97;;
41921;SDS011;27609;51.002;5.354;2022-07-05T07:22:44;4.80;;;3.50;;
41921;SDS011;27609;51.002;5.354;2022-07-05T07:25:10;8.00;;;3.53;;
41921;SDS011;27609;51.002;5.354;2022-07-05T07:27:49;7.03;;;3.70;;
41921;SDS011;27609;51.002;5.354;2022-07-05T07:30:21;4.88;;;3.42;;
41921;SDS011;27609;51.002;5.354;2022-07-05T07:32:48;4.97;;;3.35;;
41921;SDS011;27609;51.002;5.354;2022-07-05T07:35:14;7.55;;;3.80;;
41921;SDS011;27609;51.002;5.354;2022-07-05T07:37:40;6.82;;;4.65;;
41921;SDS011;27609;51.002;5.354;2022-07-05T07:40:07;7.63;;;3.55;;
41921;SDS011;27609;51.002;5.354;2022-07-05T07:42:34;6.70;;;3.70;;
41921;SDS011;27609;51.002;5.354;2022-07-05T07:45:00;5.38;;;3.30;;
41921;SDS011;27609;51.002;5.354;2022-07-05T07:47:30;5.53;;;3.27;;
41921;SDS011;27609;51.002;5.354;2022-07-05T07:49:59;6.70;;;3.40;;
41921;SDS011;27609;51.002;5.354;2022-07-05T07:52:25;9.07;;;3.60;;
41921;SDS011;27609;51.002;5.354;2022-07-05T07:54:51;5.05;;;3.33;;
41921;SDS011;27609;51.002;5.354;2022-07-05T07:57:17;6.28;;;3.35;;
41921;SDS011;27609;51.002;5.354;2022-07-05T07:59:43;4.80;;;3.10;;
41921;SDS011;27609;51.002;5.354;2022-07-05T08:02:09;9.07;;;5.10;;
41921;SDS011;27609;51.002;5.354;2022-07-05T08:04:35;7.55;;;3.75;;
41921;SDS011;27609;51.002;5.354;2022-07-05T08:07:01;6.18;;;3.92;;
41921;SDS011;27609;51.002;5.354;2022-07-05T08:09:28;6.00;;;3.58;;
41921;SDS011;27609;51.002;5.354;2022-07-05T08:11:55;8.65;;;3.55;;
41921;SDS011;27609;51.002;5.354;2022-07-05T08:14:22;7.35;;;2.53;;
41921;SDS011;27609;51.002;5.354;2022-07-05T08:16:48;3.70;;;2.85;;
41921;SDS011;27609;51.002;5.354;2022-07-05T08:19:14;6.65;;;2.45;;
41921;SDS011;27609;51.002;5.354;2022-07-05T08:21:59;5.60;;;2.58;;
41921;SDS011;27609;51.002;5.354;2022-07-05T08:24:26;2.70;;;1.90;;
41921;SDS011;27609;51.002;5.354;2022-07-05T08:26:53;4.13;;;2.15;;
41921;SDS011;27609;51.002;5.354;2022-07-05T08:29:18;5.95;;;2.80;;
41921;SDS011;27609;51.002;5.354;2022-07-05T08:31:45;4.43;;;2.30;;
41921;SDS011;27609;51.002;5.354;2022-07-05T08:34:13;4.68;;;2.35;;
41921;SDS011;27609;51.002;5.354;2022-07-05T08:36:39;8.18;;;2.40;;
41921;SDS011;27609;51.002;5.354;2022-07-05T08:39:07;6.20;;;1.80;;
41921;SDS011;27609;51.002;5.354;2022-07-05T08:41:35;3.58;;;2.28;;
41921;SDS011;27609;51.002;5.354;2022-07-05T08:44:03;5.07;;;1.77;;
41921;SDS011;27609;51.002;5.354;2022-07-05T08:46:33;3.90;;;1.50;;
41921;SDS011;27609;51.002;5.354;2022-07-05T08:49:02;1.70;;;1.30;;
41921;SDS011;27609;51.002;5.354;2022-07-05T08:51:30;5.07;;;2.08;;
41921;SDS011;27609;51.002;5.354;2022-07-05T08:53:59;6.35;;;2.25;;
41921;SDS011;27609;51.002;5.354;2022-07-05T08:56:25;5.15;;;2.35;;
41921;SDS011;27609;51.002;5.354;2022-07-05T08:58:51;5.25;;;2.17;;
41921;SDS011;27609;51.002;5.354;2022-07-05T09:01:17;6.07;;;2.58;;
41921;SDS011;27609;51.002;5.354;2022-07-05T09:03:47;4.05;;;2.10;;
41921;SDS011;27609;51.002;5.354;2022-07-05T09:06:16;4.00;;;2.10;;
41921;SDS011;27609;51.002;5.354;2022-07-05T09:08:44;4.47;;;2.20;;
41921;SDS011;27609;51.002;5.354;2022-07-05T09:11:13;4.07;;;1.95;;
41921;SDS011;27609;51.002;5.354;2022-07-05T09:13:43;3.25;;;1.70;;
41921;SDS011;27609;51.002;5.354;2022-07-05T09:16:13;4.55;;;1.92;;
41921;SDS011;27609;51.002;5.354;2022-07-05T09:18:46;3.58;;;1.52;;
41921;SDS011;27609;51.002;5.354;2022-07-05T09:21:13;3.20;;;1.50;;
41921;SDS011;27609;51.002;5.354;2022-07-05T09:26:46;4.25;;;2.90;;
41921;SDS011;27609;51.002;5.354;2022-07-05T09:29:15;3.38;;;1.83;;
41921;SDS011;27609;51.002;5.354;2022-07-05T09:31:43;3.20;;;1.65;;
41921;SDS011;27609;51.002;5.354;2022-07-05T09:34:11;2.63;;;1.77;;
41921;SDS011;27609;51.002;5.354;2022-07-05T09:36:49;4.43;;;1.67;;
41921;SDS011;27609;51.002;5.354;2022-07-05T09:39:15;4.38;;;1.50;;
41921;SDS011;27609;51.002;5.354;2022-07-05T09:44:47;4.22;;;1.50;;
41921;SDS011;27609;51.002;5.354;2022-07-05T09:47:18;3.55;;;2.00;;
41921;SDS011;27609;51.002;5.354;2022-07-05T09:49:55;3.97;;;1.90;;
41921;SDS011;27609;51.002;5.354;2022-07-05T09:57:41;6.70;;;1.63;;
41921;SDS011;27609;51.002;5.354;2022-07-05T10:00:09;5.60;;;1.25;;
41921;SDS011;27609;51.002;5.354;2022-07-05T10:05:12;4.70;;;1.73;;
41921;SDS011;27609;51.002;5.354;2022-07-05T10:10:21;5.07;;;1.52;;
41921;SDS011;27609;51.002;5.354;2022-07-05T10:12:50;4.05;;;1.50;;
41921;SDS011;27609;51.002;5.354;2022-07-05T10:15:22;3.80;;;1.50;;
41921;SDS011;27609;51.002;5.354;2022-07-05T10:23:16;2.85;;;1.25;;
41921;SDS011;27609;51.002;5.354;2022-07-05T10:25:46;3.38;;;1.27;;
41921;SDS011;27609;51.002;5.354;2022-07-05T10:28:13;2.90;;;1.60;;
41921;SDS011;27609;51.002;5.354;2022-07-05T10:30:44;3.50;;;1.50;;
41921;SDS011;27609;51.002;5.354;2022-07-05T10:33:12;3.20;;;1.48;;
41921;SDS011;27609;51.002;5.354;2022-07-05T10:35:44;5.35;;;1.92;;
41921;SDS011;27609;51.002;5.354;2022-07-05T10:38:10;2.72;;;1.23;;
41921;SDS011;27609;51.002;5.354;2022-07-05T10:40:38;4.30;;;1.52;;
41921;SDS011;27609;51.002;5.354;2022-07-05T10:43:08;6.35;;;2.58;;
41921;SDS011;27609;51.002;5.354;2022-07-05T10:45:36;5.60;;;1.60;;
41921;SDS011;27609;51.002;5.354;2022-07-05T10:58:36;5.68;;;1.55;;
41921;SDS011;27609;51.002;5.354;2022-07-05T11:03:41;5.00;;;1.50;;
41921;SDS011;27609;51.002;5.354;2022-07-05T11:06:12;3.83;;;1.65;;
41921;SDS011;27609;51.002;5.354;2022-07-05T11:11:28;4.65;;;1.55;;
41921;SDS011;27609;51.002;5.354;2022-07-05T11:14:01;3.75;;;1.20;;
41921;SDS011;27609;51.002;5.354;2022-07-05T11:19:06;3.63;;;1.00;;
41921;SDS011;27609;51.002;5.354;2022-07-05T11:22:01;2.88;;;1.45;;
41921;SDS011;27609;51.002;5.354;2022-07-05T11:24:31;5.07;;;1.02;;
41921;SDS011;27609;51.002;5.354;2022-07-05T11:27:01;1.42;;;0.93;;
41921;SDS011;27609;51.002;5.354;2022-07-05T11:29:45;3.25;;;1.00;;
41921;SDS011;27609;51.002;5.354;2022-07-05T11:32:17;4.93;;;1.00;;
41921;SDS011;27609;51.002;5.354;2022-07-05T11:35:13;5.05;;;1.30;;
41921;SDS011;27609;51.002;5.354;2022-07-05T11:37:59;2.13;;;1.10;;
41921;SDS011;27609;51.002;5.354;2022-07-05T11:40:29;4.35;;;1.25;;
41921;SDS011;27609;51.002;5.354;2022-07-05T11:42:56;4.03;;;1.02;;
41921;SDS011;27609;51.002;5.354;2022-07-05T11:45:22;5.22;;;0.98;;
41921;SDS011;27609;51.002;5.354;2022-07-05T11:47:49;3.58;;;1.13;;
41921;SDS011;27609;51.002;5.354;2022-07-05T11:50:24;3.20;;;1.00;;
41921;SDS011;27609;51.002;5.354;2022-07-05T11:52:55;4.90;;;1.45;;
41921;SDS011;27609;51.002;5.354;2022-07-05T11:55:23;1.45;;;1.10;;
41921;SDS011;27609;51.002;5.354;2022-07-05T11:57:52;4.60;;;1.38;;
41921;SDS011;27609;51.002;5.354;2022-07-05T12:00:29;3.10;;;1.17;;
41921;SDS011;27609;51.002;5.354;2022-07-05T12:02:57;5.47;;;1.30;;
41921;SDS011;27609;51.002;5.354;2022-07-05T12:05:23;3.95;;;1.10;;
41921;SDS011;27609;51.002;5.354;2022-07-05T12:07:54;3.10;;;1.50;;
41921;SDS011;27609;51.002;5.354;2022-07-05T12:10:20;5.20;;;1.33;;
41921;SDS011;27609;51.002;5.354;2022-07-05T12:13:07;4.93;;;1.60;;
41921;SDS011;27609;51.002;5.354;2022-07-05T12:18:00;1.90;;;1.10;;
41921;SDS011;27609;51.002;5.354;2022-07-05T12:20:31;5.55;;;1.20;;
41921;SDS011;27609;51.002;5.354;2022-07-05T12:22:59;6.30;;;1.13;;
41921;SDS011;27609;51.002;5.354;2022-07-05T12:25:26;2.22;;;1.23;;
41921;SDS011;27609;51.002;5.354;2022-07-05T12:27:53;5.13;;;1.20;;
41921;SDS011;27609;51.002;5.354;2022-07-05T12:30:21;3.30;;;1.48;;
41921;SDS011;27609;51.002;5.354;2022-07-05T12:32:54;2.90;;;1.55;;
41921;SDS011;27609;51.002;5.354;2022-07-05T12:35:28;3.58;;;1.42;;
41921;SDS011;27609;51.002;5.354;2022-07-05T12:40:29;2.70;;;1.60;;
41921;SDS011;27609;51.002;5.354;2022-07-05T12:43:11;3.90;;;1.40;;
41921;SDS011;27609;51.002;5.354;2022-07-05T12:45:39;3.75;;;1.55;;
41921;SDS011;27609;51.002;5.354;2022-07-05T12:48:07;2.83;;;1.20;;
41921;SDS011;27609;51.002;5.354;2022-07-05T12:50:51;4.30;;;1.50;;
41921;SDS011;27609;51.002;5.354;2022-07-05T12:53:18;2.30;;;1.02;;
41921;SDS011;27609;51.002;5.354;2022-07-05T12:58:56;4.82;;;1.33;;
41921;SDS011;27609;51.002;5.354;2022-07-05T13:01:32;1.90;;;1.20;;
41921;SDS011;27609;51.002;5.354;2022-07-05T13:04:15;2.13;;;1.20;;
41921;SDS011;27609;51.002;5.354;2022-07-05T13:06:46;3.00;;;1.75;;
41921;SDS011;27609;51.002;5.354;2022-07-05T13:09:30;5.00;;;1.80;;
41921;SDS011;27609;51.002;5.354;2022-07-05T13:12:04;3.90;;;1.42;;
41921;SDS011;27609;51.002;5.354;2022-07-05T13:14:36;4.50;;;1.63;;
41921;SDS011;27609;51.002;5.354;2022-07-05T13:17:04;5.13;;;1.67;;
41921;SDS011;27609;51.002;5.354;2022-07-05T13:19:30;6.15;;;1.60;;
41921;SDS011;27609;51.002;5.354;2022-07-05T13:21:55;5.38;;;1.90;;
41921;SDS011;27609;51.002;5.354;2022-07-05T13:24:21;2.47;;;1.35;;
41921;SDS011;27609;51.002;5.354;2022-07-05T13:26:47;3.92;;;1.55;;
41921;SDS011;27609;51.002;5.354;2022-07-05T13:29:13;2.55;;;1.17;;
41921;SDS011;27609;51.002;5.354;2022-07-05T13:31:39;4.50;;;1.70;;
41921;SDS011;27609;51.002;5.354;2022-07-05T13:34:05;4.40;;;1.60;;
41921;SDS011;27609;51.002;5.354;2022-07-05T13:36:30;4.20;;;2.05;;
41921;SDS011;27609;51.002;5.354;2022-07-05T13:38:56;4.30;;;1.70;;
41921;SDS011;27609;51.002;5.354;2022-07-05T13:41:22;5.13;;;1.88;;
41921;SDS011;27609;51.002;5.354;2022-07-05T13:43:48;7.40;;;2.00;;
41921;SDS011;27609;51.002;5.354;2022-07-05T13:46:14;5.20;;;2.10;;
41921;SDS011;27609;51.002;5.354;2022-07-05T13:48:40;6.85;;;1.85;;
41921;SDS011;27609;51.002;5.354;2022-07-05T13:51:06;7.07;;;2.13;;
41921;SDS011;27609;51.002;5.354;2022-07-05T13:53:36;4.95;;;1.80;;
41921;SDS011;27609;51.002;5.354;2022-07-05T13:56:05;3.22;;;1.85;;
41921;SDS011;27609;51.002;5.354;2022-07-05T13:58:31;6.63;;;2.75;;
41921;SDS011;27609;51.002;5.354;2022-07-05T14:00:58;9.43;;;2.97;;
41921;SDS011;27609;51.002;5.354;2022-07-05T14:03:24;7.38;;;2.50;;
41921;SDS011;27609;51.002;5.354;2022-07-05T14:05:50;9.27;;;2.25;;
41921;SDS011;27609;51.002;5.354;2022-07-05T14:08:16;8.70;;;2.58;;
41921;SDS011;27609;51.002;5.354;2022-07-05T14:10:52;5.10;;;1.90;;
41921;SDS011;27609;51.002;5.354;2022-07-05T14:13:22;6.82;;;2.83;;
41921;SDS011;27609;51.002;5.354;2022-07-05T14:15:49;5.63;;;1.92;;
41921;SDS011;27609;51.002;5.354;2022-07-05T14:18:16;6.57;;;2.25;;
41921;SDS011;27609;51.002;5.354;2022-07-05T14:20:43;8.13;;;2.05;;
41921;SDS011;27609;51.002;5.354;2022-07-05T14:23:10;6.00;;;1.77;;
41921;SDS011;27609;51.002;5.354;2022-07-05T14:25:37;3.60;;;1.58;;
41921;SDS011;27609;51.002;5.354;2022-07-05T14:28:03;6.65;;;1.70;;
41921;SDS011;27609;51.002;5.354;2022-07-05T14:30:39;5.97;;;1.38;;
41921;SDS011;27609;51.002;5.354;2022-07-05T14:33:06;2.33;;;1.40;;
41921;SDS011;27609;51.002;5.354;2022-07-05T14:35:32;8.40;;;1.40;;
41921;SDS011;27609;51.002;5.354;2022-07-05T14:37:59;6.15;;;1.58;;
41921;SDS011;27609;51.002;5.354;2022-07-05T14:40:25;3.78;;;1.50;;
41921;SDS011;27609;51.002;5.354;2022-07-05T14:42:52;5.00;;;1.75;;
41921;SDS011;27609;51.002;5.354;2022-07-05T14:45:19;3.55;;;1.20;;
41921;SDS011;27609;51.002;5.354;2022-07-05T14:47:45;7.18;;;1.60;;
41921;SDS011;27609;51.002;5.354;2022-07-05T14:50:12;5.85;;;1.60;;
41921;SDS011;27609;51.002;5.354;2022-07-05T14:52:39;3.95;;;1.23;;
41921;SDS011;27609;51.002;5.354;2022-07-05T14:55:05;2.42;;;1.20;;
41921;SDS011;27609;51.002;5.354;2022-07-05T14:57:31;3.17;;;1.20;;
41921;SDS011;27609;51.002;5.354;2022-07-05T14:59:57;1.65;;;1.25;;
41921;SDS011;27609;51.002;5.354;2022-07-05T15:02:23;2.88;;;1.38;;
41921;SDS011;27609;51.002;5.354;2022-07-05T15:04:49;2.22;;;1.38;;
41921;SDS011;27609;51.002;5.354;2022-07-05T15:07:15;3.03;;;1.30;;
41921;SDS011;27609;51.002;5.354;2022-07-05T15:09:41;3.85;;;1.30;;
41921;SDS011;27609;51.002;5.354;2022-07-05T15:12:07;3.78;;;1.27;;
41921;SDS011;27609;51.002;5.354;2022-07-05T15:14:33;3.72;;;1.30;;
41921;SDS011;27609;51.002;5.354;2022-07-05T15:16:59;4.90;;;1.33;;
41921;SDS011;27609;51.002;5.354;2022-07-05T15:19:28;3.20;;;1.17;;
41921;SDS011;27609;51.002;5.354;2022-07-05T15:21:53;5.78;;;1.23;;
41921;SDS011;27609;51.002;5.354;2022-07-05T15:24:19;4.18;;;0.93;;
41921;SDS011;27609;51.002;5.354;2022-07-05T15:26:46;3.90;;;1.42;;
41921;SDS011;27609;51.002;5.354;2022-07-05T15:29:14;5.45;;;1.25;;
41921;SDS011;27609;51.002;5.354;2022-07-05T15:31:40;3.08;;;1.27;;
41921;SDS011;27609;51.002;5.354;2022-07-05T15:34:06;3.20;;;1.00;;
41921;SDS011;27609;51.002;5.354;2022-07-05T15:36:33;4.15;;;1.27;;
41921;SDS011;27609;51.002;5.354;2022-07-05T15:39:03;4.60;;;1.10;;
41921;SDS011;27609;51.002;5.354;2022-07-05T15:41:30;4.40;;;1.15;;